sensor_id;sensor_type;location;lat;lon;timestamp;P1;durP1;ratioP1;P2;durP2;ratioP2
71637;SDS011;59485;43.542;-5.676;2024-02-21T00:02:04;21.98;;;13.70;;
71637;SDS011;59485;43.542;-5.676;2024-02-21T00:04:30;25.10;;;14.30;;
71637;SDS011;59485;43.542;-5.676;2024-02-21T00:06:55;27.47;;;15.50;;
71637;SDS011;59485;43.542;-5.676;2024-02-21T00:09:30;27.20;;;15.47;;
71637;SDS011;59485;43.542;-5.676;2024-02-21T00:11:55;27.88;;;15.95;;
71637;SDS011;59485;43.542;-5.676;2024-02-21T00:14:20;24.03;;;15.10;;
71637;SDS011;59485;43.542;-5.676;2024-02-21T00:16:46;22.90;;;14.82;;
71637;SDS011;59485;43.542;-5.676;2024-02-21T00:19:28;22.60;;;14.13;;
71637;SDS011;59485;43.542;-5.676;2024-02-21T00:21:53;22.65;;;13.65;;
71637;SDS011;59485;43.542;-5.676;2024-02-21T00:26:49;18.08;;;12.98;;
71637;SDS011;59485;43.542;-5.676;2024-02-21T00:31:52;23.27;;;13.40;;
71637;SDS011;59485;43.542;-5.676;2024-02-21T00:34:22;19.35;;;13.48;;
71637;SDS011;59485;43.542;-5.676;2024-02-21T00:36:54;17.25;;;12.52;;
71637;SDS011;59485;43.542;-5.676;2024-02-21T00:39:19;19.50;;;11.77;;
71637;SDS011;59485;43.542;-5.676;2024-02-21T00:41:48;18.63;;;11.73;;
71637;SDS011;59485;43.542;-5.676;2024-02-21T00:44:13;18.63;;;11.60;;
71637;SDS011;59485;43.542;-5.676;2024-02-21T00:46:46;16.83;;;11.30;;
71637;SDS011;59485;43.542;-5.676;2024-02-21T00:49:21;16.45;;;11.77;;
71637;SDS011;59485;43.542;-5.676;2024-02-21T00:51:47;17.98;;;11.30;;
71637;SDS011;59485;43.542;-5.676;2024-02-21T00:54:12;18.43;;;12.03;;
71637;SDS011;59485;43.542;-5.676;2024-02-21T00:56:44;13.93;;;11.53;;
71637;SDS011;59485;43.542;-5.676;2024-02-21T01:01:43;14.15;;;12.05;;
71637;SDS011;59485;43.542;-5.676;2024-02-21T01:04:09;14.30;;;11.10;;
71637;SDS011;59485;43.542;-5.676;2024-02-21T01:06:34;15.77;;;10.20;;
71637;SDS011;59485;43.542;-5.676;2024-02-21T01:09:00;16.67;;;10.82;;
71637;SDS011;59485;43.542;-5.676;2024-02-21T01:11:44;15.37;;;11.03;;
71637;SDS011;59485;43.542;-5.676;2024-02-21T01:14:09;16.83;;;11.38;;
71637;SDS011;59485;43.542;-5.676;2024-02-21T01:16:42;18.65;;;12.90;;
71637;SDS011;59485;43.542;-5.676;2024-02-21T01:21:38;18.75;;;12.23;;
71637;SDS011;59485;43.542;-5.676;2024-02-21T01:24:03;18.40;;;12.50;;
71637;SDS011;59485;43.542;-5.676;2024-02-21T01:26:38;15.37;;;10.97;;
71637;SDS011;59485;43.542;-5.676;2024-02-21T01:29:10;18.27;;;11.63;;
71637;SDS011;59485;43.542;-5.676;2024-02-21T01:31:35;17.38;;;11.63;;
71637;SDS011;59485;43.542;-5.676;2024-02-21T01:34:07;15.63;;;10.27;;
71637;SDS011;59485;43.542;-5.676;2024-02-21T01:36:32;13.40;;;10.70;;
71637;SDS011;59485;43.542;-5.676;2024-02-21T01:38:57;15.50;;;11.07;;
71637;SDS011;59485;43.542;-5.676;2024-02-21T01:41:23;18.07;;;11.07;;
71637;SDS011;59485;43.542;-5.676;2024-02-21T01:43:51;14.45;;;10.40;;
71637;SDS011;59485;43.542;-5.676;2024-02-21T01:48:57;12.40;;;9.80;;
71637;SDS011;59485;43.542;-5.676;2024-02-21T01:53:49;16.63;;;10.50;;
71637;SDS011;59485;43.542;-5.676;2024-02-21T01:56:15;13.98;;;11.35;;
71637;SDS011;59485;43.542;-5.676;2024-02-21T01:58:42;18.50;;;10.83;;
71637;SDS011;59485;43.542;-5.676;2024-02-21T02:01:17;15.25;;;10.38;;
71637;SDS011;59485;43.542;-5.676;2024-02-21T02:03:54;13.57;;;10.95;;
71637;SDS011;59485;43.542;-5.676;2024-02-21T02:06:20;16.60;;;11.02;;
71637;SDS011;59485;43.542;-5.676;2024-02-21T02:08:58;13.53;;;10.67;;
71637;SDS011;59485;43.542;-5.676;2024-02-21T02:11:23;15.88;;;10.30;;
71637;SDS011;59485;43.542;-5.676;2024-02-21T02:13:48;17.50;;;11.17;;
71637;SDS011;59485;43.542;-5.676;2024-02-21T02:16:14;16.40;;;10.83;;
71637;SDS011;59485;43.542;-5.676;2024-02-21T02:18:48;17.10;;;11.33;;
71637;SDS011;59485;43.542;-5.676;2024-02-21T02:21:16;14.73;;;11.15;;
71637;SDS011;59485;43.542;-5.676;2024-02-21T02:24:00;15.52;;;10.93;;
71637;SDS011;59485;43.542;-5.676;2024-02-21T02:26:25;17.60;;;11.00;;
71637;SDS011;59485;43.542;-5.676;2024-02-21T02:28:54;16.27;;;10.60;;
71637;SDS011;59485;43.542;-5.676;2024-02-21T02:33:50;17.08;;;12.30;;
71637;SDS011;59485;43.542;-5.676;2024-02-21T02:36:15;13.77;;;11.13;;
71637;SDS011;59485;43.542;-5.676;2024-02-21T02:38:42;15.63;;;12.07;;
71637;SDS011;59485;43.542;-5.676;2024-02-21T02:41:17;19.50;;;12.60;;
71637;SDS011;59485;43.542;-5.676;2024-02-21T02:43:42;15.88;;;10.85;;
71637;SDS011;59485;43.542;-5.676;2024-02-21T02:46:07;14.43;;;10.60;;
71637;SDS011;59485;43.542;-5.676;2024-02-21T02:48:37;16.37;;;10.10;;
71637;SDS011;59485;43.542;-5.676;2024-02-21T02:51:06;13.43;;;9.77;;
71637;SDS011;59485;43.542;-5.676;2024-02-21T02:53:35;14.02;;;10.25;;
71637;SDS011;59485;43.542;-5.676;2024-02-21T02:59:13;14.52;;;10.75;;
71637;SDS011;59485;43.542;-5.676;2024-02-21T03:01:39;18.55;;;12.27;;
71637;SDS011;59485;43.542;-5.676;2024-02-21T03:04:04;19.67;;;12.50;;
71637;SDS011;59485;43.542;-5.676;2024-02-21T03:06:29;19.03;;;13.13;;
71637;SDS011;59485;43.542;-5.676;2024-02-21T03:08:55;23.43;;;13.60;;
71637;SDS011;59485;43.542;-5.676;2024-02-21T03:11:20;25.00;;;14.57;;
71637;SDS011;59485;43.542;-5.676;2024-02-21T03:13:48;27.33;;;13.75;;
71637;SDS011;59485;43.542;-5.676;2024-02-21T03:16:23;18.83;;;11.47;;
71637;SDS011;59485;43.542;-5.676;2024-02-21T03:21:23;15.73;;;11.18;;
71637;SDS011;59485;43.542;-5.676;2024-02-21T03:24:01;15.10;;;10.27;;
71637;SDS011;59485;43.542;-5.676;2024-02-21T03:28:57;18.00;;;10.23;;
71637;SDS011;59485;43.542;-5.676;2024-02-21T03:31:22;15.75;;;10.30;;
71637;SDS011;59485;43.542;-5.676;2024-02-21T03:34:03;13.27;;;10.47;;
71637;SDS011;59485;43.542;-5.676;2024-02-21T03:36:28;17.55;;;11.38;;
71637;SDS011;59485;43.542;-5.676;2024-02-21T03:38:54;13.70;;;10.63;;
71637;SDS011;59485;43.542;-5.676;2024-02-21T03:41:29;15.77;;;10.67;;
71637;SDS011;59485;43.542;-5.676;2024-02-21T03:43:57;13.50;;;9.63;;
71637;SDS011;59485;43.542;-5.676;2024-02-21T03:46:23;13.90;;;9.70;;
71637;SDS011;59485;43.542;-5.676;2024-02-21T03:49:01;14.98;;;9.95;;
71637;SDS011;59485;43.542;-5.676;2024-02-21T03:51:26;17.07;;;10.00;;
71637;SDS011;59485;43.542;-5.676;2024-02-21T03:53:52;18.45;;;12.30;;
71637;SDS011;59485;43.542;-5.676;2024-02-21T03:56:17;19.47;;;11.40;;
71637;SDS011;59485;43.542;-5.676;2024-02-21T03:58:43;16.47;;;11.60;;
71637;SDS011;59485;43.542;-5.676;2024-02-21T04:01:08;14.87;;;11.43;;
71637;SDS011;59485;43.542;-5.676;2024-02-21T04:06:04;14.30;;;9.83;;
71637;SDS011;59485;43.542;-5.676;2024-02-21T04:08:30;13.98;;;9.35;;
71637;SDS011;59485;43.542;-5.676;2024-02-21T04:10:55;12.03;;;9.53;;
71637;SDS011;59485;43.542;-5.676;2024-02-21T04:13:20;11.97;;;9.60;;
71637;SDS011;59485;43.542;-5.676;2024-02-21T04:15:51;13.68;;;9.85;;
71637;SDS011;59485;43.542;-5.676;2024-02-21T04:18:19;16.20;;;9.05;;
71637;SDS011;59485;43.542;-5.676;2024-02-21T04:20:54;12.70;;;9.60;;
71637;SDS011;59485;43.542;-5.676;2024-02-21T04:23:19;15.47;;;9.57;;
71637;SDS011;59485;43.542;-5.676;2024-02-21T04:25:48;14.40;;;10.10;;
71637;SDS011;59485;43.542;-5.676;2024-02-21T04:28:23;12.82;;;9.38;;
71637;SDS011;59485;43.542;-5.676;2024-02-21T04:30:54;14.60;;;9.32;;
71637;SDS011;59485;43.542;-5.676;2024-02-21T04:33:22;13.93;;;9.52;;
71637;SDS011;59485;43.542;-5.676;2024-02-21T04:38:15;17.50;;;9.88;;
71637;SDS011;59485;43.542;-5.676;2024-02-21T04:40:40;19.23;;;11.37;;
71637;SDS011;59485;43.542;-5.676;2024-02-21T04:43:08;18.67;;;11.45;;
71637;SDS011;59485;43.542;-5.676;2024-02-21T04:45:34;19.60;;;11.83;;
71637;SDS011;59485;43.542;-5.676;2024-02-21T04:47:59;21.43;;;12.10;;
71637;SDS011;59485;43.542;-5.676;2024-02-21T04:50:33;22.05;;;11.88;;
71637;SDS011;59485;43.542;-5.676;2024-02-21T04:53:05;18.90;;;11.67;;
71637;SDS011;59485;43.542;-5.676;2024-02-21T04:55:30;15.25;;;10.20;;
71637;SDS011;59485;43.542;-5.676;2024-02-21T04:57:56;18.37;;;10.50;;
71637;SDS011;59485;43.542;-5.676;2024-02-21T05:00:24;13.75;;;9.40;;
71637;SDS011;59485;43.542;-5.676;2024-02-21T05:02:50;12.80;;;9.13;;
71637;SDS011;59485;43.542;-5.676;2024-02-21T05:05:15;13.80;;;9.20;;
71637;SDS011;59485;43.542;-5.676;2024-02-21T05:07:41;13.87;;;9.50;;
71637;SDS011;59485;43.542;-5.676;2024-02-21T05:10:19;13.85;;;9.48;;
71637;SDS011;59485;43.542;-5.676;2024-02-21T05:13:04;13.73;;;9.03;;
71637;SDS011;59485;43.542;-5.676;2024-02-21T05:15:29;13.30;;;9.02;;
71637;SDS011;59485;43.542;-5.676;2024-02-21T05:20:29;15.13;;;9.07;;
71637;SDS011;59485;43.542;-5.676;2024-02-21T05:25:25;17.17;;;10.55;;
71637;SDS011;59485;43.542;-5.676;2024-02-21T05:27:51;17.97;;;11.10;;
71637;SDS011;59485;43.542;-5.676;2024-02-21T05:30:25;18.35;;;10.60;;
71637;SDS011;59485;43.542;-5.676;2024-02-21T05:32:50;17.00;;;11.63;;
71637;SDS011;59485;43.542;-5.676;2024-02-21T05:35:28;16.53;;;10.13;;
71637;SDS011;59485;43.542;-5.676;2024-02-21T05:37:53;21.75;;;13.15;;
71637;SDS011;59485;43.542;-5.676;2024-02-21T05:40:31;20.00;;;10.40;;
71637;SDS011;59485;43.542;-5.676;2024-02-21T05:43:07;13.68;;;8.90;;
71637;SDS011;59485;43.542;-5.676;2024-02-21T05:45:32;15.80;;;8.43;;
71637;SDS011;59485;43.542;-5.676;2024-02-21T05:47:58;18.20;;;9.60;;
71637;SDS011;59485;43.542;-5.676;2024-02-21T05:50:23;18.30;;;9.80;;
71637;SDS011;59485;43.542;-5.676;2024-02-21T05:52:51;13.70;;;9.40;;
71637;SDS011;59485;43.542;-5.676;2024-02-21T05:55:16;15.93;;;8.52;;
71637;SDS011;59485;43.542;-5.676;2024-02-21T06:00:16;22.20;;;18.40;;
71637;SDS011;59485;43.542;-5.676;2024-02-21T06:02:41;14.23;;;9.35;;
71637;SDS011;59485;43.542;-5.676;2024-02-21T06:05:07;12.23;;;8.53;;
71637;SDS011;59485;43.542;-5.676;2024-02-21T06:07:34;14.48;;;8.68;;
71637;SDS011;59485;43.542;-5.676;2024-02-21T06:10:00;14.90;;;9.23;;
71637;SDS011;59485;43.542;-5.676;2024-02-21T06:12:25;18.63;;;9.10;;
71637;SDS011;59485;43.542;-5.676;2024-02-21T06:17:20;18.02;;;10.07;;
71637;SDS011;59485;43.542;-5.676;2024-02-21T06:19:45;22.83;;;19.13;;
71637;SDS011;59485;43.542;-5.676;2024-02-21T06:22:11;13.33;;;9.57;;
71637;SDS011;59485;43.542;-5.676;2024-02-21T06:24:36;18.33;;;9.40;;
71637;SDS011;59485;43.542;-5.676;2024-02-21T06:27:06;13.20;;;9.10;;
71637;SDS011;59485;43.542;-5.676;2024-02-21T06:29:36;14.52;;;8.98;;
71637;SDS011;59485;43.542;-5.676;2024-02-21T06:32:02;13.93;;;12.47;;
71637;SDS011;59485;43.542;-5.676;2024-02-21T06:34:27;9.43;;;7.70;;
71637;SDS011;59485;43.542;-5.676;2024-02-21T06:36:53;12.87;;;9.40;;
71637;SDS011;59485;43.542;-5.676;2024-02-21T06:39:18;12.13;;;7.38;;
71637;SDS011;59485;43.542;-5.676;2024-02-21T06:41:44;9.70;;;6.90;;
71637;SDS011;59485;43.542;-5.676;2024-02-21T06:44:18;9.50;;;8.00;;
71637;SDS011;59485;43.542;-5.676;2024-02-21T06:46:53;11.77;;;7.88;;
71637;SDS011;59485;43.542;-5.676;2024-02-21T06:49:25;10.88;;;7.05;;
71637;SDS011;59485;43.542;-5.676;2024-02-21T06:51:51;17.67;;;16.25;;
71637;SDS011;59485;43.542;-5.676;2024-02-21T06:54:16;7.87;;;6.40;;
71637;SDS011;59485;43.542;-5.676;2024-02-21T06:56:41;11.93;;;8.70;;
71637;SDS011;59485;43.542;-5.676;2024-02-21T06:59:07;14.47;;;8.70;;
71637;SDS011;59485;43.542;-5.676;2024-02-21T07:01:32;16.10;;;11.67;;
71637;SDS011;59485;43.542;-5.676;2024-02-21T07:03:57;12.47;;;7.87;;
71637;SDS011;59485;43.542;-5.676;2024-02-21T07:06:23;13.77;;;8.43;;
71637;SDS011;59485;43.542;-5.676;2024-02-21T07:08:48;13.23;;;7.75;;
71637;SDS011;59485;43.542;-5.676;2024-02-21T07:11:14;17.77;;;8.77;;
71637;SDS011;59485;43.542;-5.676;2024-02-21T07:13:39;16.37;;;7.30;;
71637;SDS011;59485;43.542;-5.676;2024-02-21T07:16:05;20.77;;;14.00;;
71637;SDS011;59485;43.542;-5.676;2024-02-21T07:18:30;21.13;;;7.97;;
71637;SDS011;59485;43.542;-5.676;2024-02-21T07:20:56;23.07;;;9.80;;
71637;SDS011;59485;43.542;-5.676;2024-02-21T07:23:21;21.98;;;9.63;;
71637;SDS011;59485;43.542;-5.676;2024-02-21T07:25:47;19.60;;;10.77;;
71637;SDS011;59485;43.542;-5.676;2024-02-21T07:28:18;28.43;;;10.40;;
71637;SDS011;59485;43.542;-5.676;2024-02-21T07:30:44;30.10;;;11.20;;
71637;SDS011;59485;43.542;-5.676;2024-02-21T07:33:09;24.13;;;10.60;;
71637;SDS011;59485;43.542;-5.676;2024-02-21T07:35:35;25.23;;;11.15;;
71637;SDS011;59485;43.542;-5.676;2024-02-21T07:38:03;18.03;;;9.60;;
71637;SDS011;59485;43.542;-5.676;2024-02-21T07:40:28;16.65;;;9.30;;
71637;SDS011;59485;43.542;-5.676;2024-02-21T07:42:54;22.63;;;12.67;;
71637;SDS011;59485;43.542;-5.676;2024-02-21T07:45:19;31.13;;;19.60;;
71637;SDS011;59485;43.542;-5.676;2024-02-21T07:47:48;19.55;;;10.20;;
71637;SDS011;59485;43.542;-5.676;2024-02-21T07:50:14;14.57;;;8.97;;
71637;SDS011;59485;43.542;-5.676;2024-02-21T07:52:39;14.07;;;9.20;;
71637;SDS011;59485;43.542;-5.676;2024-02-21T07:55:05;13.77;;;8.80;;
71637;SDS011;59485;43.542;-5.676;2024-02-21T07:57:30;20.23;;;18.43;;
71637;SDS011;59485;43.542;-5.676;2024-02-21T07:59:55;12.67;;;9.00;;
71637;SDS011;59485;43.542;-5.676;2024-02-21T08:02:21;17.83;;;8.93;;
71637;SDS011;59485;43.542;-5.676;2024-02-21T08:04:46;16.03;;;9.37;;
71637;SDS011;59485;43.542;-5.676;2024-02-21T08:07:11;15.10;;;10.05;;
71637;SDS011;59485;43.542;-5.676;2024-02-21T08:09:39;19.27;;;10.80;;
71637;SDS011;59485;43.542;-5.676;2024-02-21T08:12:04;17.77;;;10.75;;
71637;SDS011;59485;43.542;-5.676;2024-02-21T08:14:30;19.03;;;10.30;;
71637;SDS011;59485;43.542;-5.676;2024-02-21T08:16:55;13.40;;;9.13;;
71637;SDS011;59485;43.542;-5.676;2024-02-21T08:19:21;15.50;;;9.60;;
71637;SDS011;59485;43.542;-5.676;2024-02-21T08:21:47;14.10;;;8.93;;
71637;SDS011;59485;43.542;-5.676;2024-02-21T08:24:13;14.45;;;9.77;;
71637;SDS011;59485;43.542;-5.676;2024-02-21T08:26:40;11.47;;;7.63;;
71637;SDS011;59485;43.542;-5.676;2024-02-21T08:29:05;22.20;;;7.57;;
71637;SDS011;59485;43.542;-5.676;2024-02-21T08:31:31;13.23;;;7.27;;
71637;SDS011;59485;43.542;-5.676;2024-02-21T08:33:57;12.10;;;7.73;;
71637;SDS011;59485;43.542;-5.676;2024-02-21T08:36:27;14.82;;;7.20;;
71637;SDS011;59485;43.542;-5.676;2024-02-21T08:38:56;14.50;;;10.57;;
71637;SDS011;59485;43.542;-5.676;2024-02-21T08:41:21;9.07;;;8.07;;
71637;SDS011;59485;43.542;-5.676;2024-02-21T08:43:48;9.48;;;7.95;;
71637;SDS011;59485;43.542;-5.676;2024-02-21T08:46:14;28.95;;;20.95;;
71637;SDS011;59485;43.542;-5.676;2024-02-21T08:48:39;26.70;;;12.30;;
71637;SDS011;59485;43.542;-5.676;2024-02-21T08:51:05;25.03;;;11.37;;
71637;SDS011;59485;43.542;-5.676;2024-02-21T08:53:30;23.10;;;9.85;;
71637;SDS011;59485;43.542;-5.676;2024-02-21T08:55:56;16.70;;;9.00;;
71637;SDS011;59485;43.542;-5.676;2024-02-21T08:58:22;14.65;;;8.45;;
71637;SDS011;59485;43.542;-5.676;2024-02-21T09:00:49;23.23;;;11.90;;
71637;SDS011;59485;43.542;-5.676;2024-02-21T09:03:14;30.88;;;13.88;;
71637;SDS011;59485;43.542;-5.676;2024-02-21T09:05:40;32.10;;;14.60;;
71637;SDS011;59485;43.542;-5.676;2024-02-21T09:08:06;32.20;;;16.30;;
71637;SDS011;59485;43.542;-5.676;2024-02-21T09:10:31;37.77;;;20.87;;
71637;SDS011;59485;43.542;-5.676;2024-02-21T09:12:56;36.83;;;19.53;;
71637;SDS011;59485;43.542;-5.676;2024-02-21T09:15:22;28.20;;;16.63;;
71637;SDS011;59485;43.542;-5.676;2024-02-21T09:17:52;23.42;;;15.45;;
71637;SDS011;59485;43.542;-5.676;2024-02-21T09:20:18;25.25;;;14.88;;
71637;SDS011;59485;43.542;-5.676;2024-02-21T09:22:43;27.50;;;16.30;;
71637;SDS011;59485;43.542;-5.676;2024-02-21T09:25:08;17.47;;;11.27;;
71637;SDS011;59485;43.542;-5.676;2024-02-21T09:27:37;19.23;;;9.18;;
71637;SDS011;59485;43.542;-5.676;2024-02-21T09:30:02;19.92;;;8.68;;
71637;SDS011;59485;43.542;-5.676;2024-02-21T09:32:29;20.38;;;8.68;;
71637;SDS011;59485;43.542;-5.676;2024-02-21T09:34:55;19.33;;;8.17;;
71637;SDS011;59485;43.542;-5.676;2024-02-21T09:37:20;14.70;;;8.03;;
71637;SDS011;59485;43.542;-5.676;2024-02-21T09:39:45;14.63;;;8.70;;
71637;SDS011;59485;43.542;-5.676;2024-02-21T09:42:12;19.13;;;10.18;;
71637;SDS011;59485;43.542;-5.676;2024-02-21T09:44:39;22.65;;;9.30;;
71637;SDS011;59485;43.542;-5.676;2024-02-21T09:47:24;15.73;;;7.37;;
71637;SDS011;59485;43.542;-5.676;2024-02-21T09:49:49;14.48;;;11.40;;
71637;SDS011;59485;43.542;-5.676;2024-02-21T09:54:42;11.80;;;8.30;;
71637;SDS011;59485;43.542;-5.676;2024-02-21T09:57:09;14.17;;;7.50;;
71637;SDS011;59485;43.542;-5.676;2024-02-21T09:59:35;15.17;;;11.53;;
71637;SDS011;59485;43.542;-5.676;2024-02-21T10:02:00;22.13;;;8.73;;
71637;SDS011;59485;43.542;-5.676;2024-02-21T10:04:26;16.83;;;7.83;;
71637;SDS011;59485;43.542;-5.676;2024-02-21T10:06:54;21.08;;;8.63;;
71637;SDS011;59485;43.542;-5.676;2024-02-21T10:11:49;12.02;;;9.32;;
71637;SDS011;59485;43.542;-5.676;2024-02-21T10:14:15;13.73;;;9.35;;
71637;SDS011;59485;43.542;-5.676;2024-02-21T10:16:40;17.80;;;9.50;;
71637;SDS011;59485;43.542;-5.676;2024-02-21T10:19:06;17.97;;;9.17;;
71637;SDS011;59485;43.542;-5.676;2024-02-21T10:21:31;18.67;;;16.70;;
71637;SDS011;59485;43.542;-5.676;2024-02-21T10:23:57;20.17;;;10.13;;
71637;SDS011;59485;43.542;-5.676;2024-02-21T10:26:25;13.88;;;9.68;;
71637;SDS011;59485;43.542;-5.676;2024-02-21T10:28:50;17.67;;;10.73;;
71637;SDS011;59485;43.542;-5.676;2024-02-21T10:33:54;16.60;;;10.05;;
71637;SDS011;59485;43.542;-5.676;2024-02-21T10:38:45;14.32;;;9.38;;
71637;SDS011;59485;43.542;-5.676;2024-02-21T10:41:10;14.20;;;8.53;;
71637;SDS011;59485;43.542;-5.676;2024-02-21T10:43:39;16.88;;;10.30;;
71637;SDS011;59485;43.542;-5.676;2024-02-21T10:46:07;18.17;;;9.90;;
71637;SDS011;59485;43.542;-5.676;2024-02-21T10:48:57;13.82;;;9.70;;
71637;SDS011;59485;43.542;-5.676;2024-02-21T10:51:22;13.57;;;8.85;;
71637;SDS011;59485;43.542;-5.676;2024-02-21T10:58:52;13.70;;;8.63;;
71637;SDS011;59485;43.542;-5.676;2024-02-21T11:01:17;14.53;;;8.80;;
71637;SDS011;59485;43.542;-5.676;2024-02-21T11:03:43;19.00;;;15.00;;
71637;SDS011;59485;43.542;-5.676;2024-02-21T11:06:12;14.80;;;10.87;;
71637;SDS011;59485;43.542;-5.676;2024-02-21T11:08:38;16.85;;;10.00;;
71637;SDS011;59485;43.542;-5.676;2024-02-21T11:11:04;19.87;;;10.00;;
71637;SDS011;59485;43.542;-5.676;2024-02-21T11:13:37;15.80;;;10.18;;
71637;SDS011;59485;43.542;-5.676;2024-02-21T11:16:44;15.35;;;9.05;;
71637;SDS011;59485;43.542;-5.676;2024-02-21T11:18:50;18.55;;;10.25;;
71637;SDS011;59485;43.542;-5.676;2024-02-21T11:21:16;23.93;;;12.00;;
71637;SDS011;59485;43.542;-5.676;2024-02-21T11:23:41;18.37;;;10.43;;
71637;SDS011;59485;43.542;-5.676;2024-02-21T11:26:07;18.30;;;11.00;;
71637;SDS011;59485;43.542;-5.676;2024-02-21T11:28:32;20.30;;;11.57;;
71637;SDS011;59485;43.542;-5.676;2024-02-21T11:31:07;17.53;;;11.27;;
71637;SDS011;59485;43.542;-5.676;2024-02-21T11:33:34;17.17;;;10.80;;
71637;SDS011;59485;43.542;-5.676;2024-02-21T11:35:59;14.80;;;9.67;;
71637;SDS011;59485;43.542;-5.676;2024-02-21T11:38:24;19.70;;;17.63;;
71637;SDS011;59485;43.542;-5.676;2024-02-21T11:40:50;15.03;;;9.23;;
71637;SDS011;59485;43.542;-5.676;2024-02-21T11:43:17;12.98;;;9.40;;
71637;SDS011;59485;43.542;-5.676;2024-02-21T11:45:42;13.00;;;9.27;;
71637;SDS011;59485;43.542;-5.676;2024-02-21T11:48:08;12.00;;;9.27;;
71637;SDS011;59485;43.542;-5.676;2024-02-21T11:52:58;12.02;;;9.82;;
71637;SDS011;59485;43.542;-5.676;2024-02-21T11:55:23;12.73;;;9.40;;
71637;SDS011;59485;43.542;-5.676;2024-02-21T11:57:49;12.87;;;9.07;;
71637;SDS011;59485;43.542;-5.676;2024-02-21T12:00:15;14.13;;;12.13;;
71637;SDS011;59485;43.542;-5.676;2024-02-21T12:02:40;12.20;;;9.53;;
71637;SDS011;59485;43.542;-5.676;2024-02-21T12:05:06;16.40;;;10.33;;
71637;SDS011;59485;43.542;-5.676;2024-02-21T12:07:32;12.80;;;10.75;;
71637;SDS011;59485;43.542;-5.676;2024-02-21T12:10:00;19.20;;;9.83;;
71637;SDS011;59485;43.542;-5.676;2024-02-21T12:12:25;15.15;;;13.63;;
71637;SDS011;59485;43.542;-5.676;2024-02-21T12:14:55;11.80;;;10.00;;
71637;SDS011;59485;43.542;-5.676;2024-02-21T12:17:23;12.85;;;9.25;;
71637;SDS011;59485;43.542;-5.676;2024-02-21T12:19:48;13.10;;;11.13;;
71637;SDS011;59485;43.542;-5.676;2024-02-21T12:22:20;22.10;;;19.87;;
71637;SDS011;59485;43.542;-5.676;2024-02-21T12:24:46;18.23;;;16.50;;
71637;SDS011;59485;43.542;-5.676;2024-02-21T12:27:13;11.70;;;10.05;;
71637;SDS011;59485;43.542;-5.676;2024-02-21T12:29:38;12.77;;;10.17;;
71637;SDS011;59485;43.542;-5.676;2024-02-21T12:32:04;12.70;;;9.98;;
71637;SDS011;59485;43.542;-5.676;2024-02-21T12:34:29;12.30;;;10.07;;
71637;SDS011;59485;43.542;-5.676;2024-02-21T12:36:58;17.70;;;11.43;;
71637;SDS011;59485;43.542;-5.676;2024-02-21T12:39:23;67.65;;;20.85;;
71637;SDS011;59485;43.542;-5.676;2024-02-21T12:41:48;66.90;;;20.73;;
71637;SDS011;59485;43.542;-5.676;2024-02-21T12:44:14;48.77;;;17.20;;
71637;SDS011;59485;43.542;-5.676;2024-02-21T12:49:06;70.18;;;19.77;;
71637;SDS011;59485;43.542;-5.676;2024-02-21T12:51:33;52.67;;;17.10;;
71637;SDS011;59485;43.542;-5.676;2024-02-21T12:53:58;41.77;;;17.03;;
71637;SDS011;59485;43.542;-5.676;2024-02-21T12:56:24;44.30;;;16.70;;
71637;SDS011;59485;43.542;-5.676;2024-02-21T12:58:51;44.38;;;15.32;;
71637;SDS011;59485;43.542;-5.676;2024-02-21T13:01:16;45.33;;;15.80;;
71637;SDS011;59485;43.542;-5.676;2024-02-21T13:06:07;40.22;;;18.70;;
71637;SDS011;59485;43.542;-5.676;2024-02-21T13:08:35;74.90;;;21.45;;
71637;SDS011;59485;43.542;-5.676;2024-02-21T13:11:01;64.97;;;19.97;;
71637;SDS011;59485;43.542;-5.676;2024-02-21T13:13:26;50.77;;;17.57;;
71637;SDS011;59485;43.542;-5.676;2024-02-21T13:15:52;58.17;;;19.37;;
71637;SDS011;59485;43.542;-5.676;2024-02-21T13:18:17;92.10;;;24.52;;
71637;SDS011;59485;43.542;-5.676;2024-02-21T13:20:42;108.63;;;25.33;;
71637;SDS011;59485;43.542;-5.676;2024-02-21T13:23:08;113.90;;;33.13;;
71637;SDS011;59485;43.542;-5.676;2024-02-21T13:25:33;124.33;;;29.47;;
71637;SDS011;59485;43.542;-5.676;2024-02-21T13:27:59;76.63;;;22.95;;
71637;SDS011;59485;43.542;-5.676;2024-02-21T13:30:24;92.33;;;31.23;;
71637;SDS011;59485;43.542;-5.676;2024-02-21T13:32:51;72.72;;;22.77;;
71637;SDS011;59485;43.542;-5.676;2024-02-21T13:35:29;57.53;;;19.53;;
71637;SDS011;59485;43.542;-5.676;2024-02-21T13:37:54;49.10;;;17.50;;
71637;SDS011;59485;43.542;-5.676;2024-02-21T13:40:19;46.28;;;23.20;;
71637;SDS011;59485;43.542;-5.676;2024-02-21T13:42:45;48.87;;;19.37;;
71637;SDS011;59485;43.542;-5.676;2024-02-21T13:45:10;62.00;;;19.60;;
71637;SDS011;59485;43.542;-5.676;2024-02-21T13:47:37;51.70;;;27.30;;
71637;SDS011;59485;43.542;-5.676;2024-02-21T13:50:03;44.05;;;17.48;;
71637;SDS011;59485;43.542;-5.676;2024-02-21T13:52:30;51.20;;;17.63;;
71637;SDS011;59485;43.542;-5.676;2024-02-21T13:54:55;38.67;;;16.77;;
71637;SDS011;59485;43.542;-5.676;2024-02-21T13:57:20;42.83;;;15.32;;
71637;SDS011;59485;43.542;-5.676;2024-02-21T13:59:46;50.90;;;21.03;;
71637;SDS011;59485;43.542;-5.676;2024-02-21T14:02:11;45.10;;;16.37;;
71637;SDS011;59485;43.542;-5.676;2024-02-21T14:04:37;49.13;;;17.73;;
71637;SDS011;59485;43.542;-5.676;2024-02-21T14:07:03;75.13;;;22.37;;
71637;SDS011;59485;43.542;-5.676;2024-02-21T14:09:28;56.80;;;19.43;;
71637;SDS011;59485;43.542;-5.676;2024-02-21T14:14:28;51.13;;;20.10;;
71637;SDS011;59485;43.542;-5.676;2024-02-21T14:19:19;51.92;;;16.40;;
71637;SDS011;59485;43.542;-5.676;2024-02-21T14:21:44;59.13;;;19.40;;
71637;SDS011;59485;43.542;-5.676;2024-02-21T14:24:10;62.00;;;25.90;;
71637;SDS011;59485;43.542;-5.676;2024-02-21T14:26:36;49.22;;;19.25;;
71637;SDS011;59485;43.542;-5.676;2024-02-21T14:29:02;51.63;;;16.00;;
71637;SDS011;59485;43.542;-5.676;2024-02-21T14:31:33;65.20;;;19.10;;
71637;SDS011;59485;43.542;-5.676;2024-02-21T14:36:26;40.53;;;24.27;;
71637;SDS011;59485;43.542;-5.676;2024-02-21T14:38:51;38.03;;;16.70;;
71637;SDS011;59485;43.542;-5.676;2024-02-21T14:41:17;37.47;;;13.20;;
71637;SDS011;59485;43.542;-5.676;2024-02-21T14:43:43;45.63;;;17.27;;
71637;SDS011;59485;43.542;-5.676;2024-02-21T14:46:08;43.15;;;25.20;;
71637;SDS011;59485;43.542;-5.676;2024-02-21T14:48:34;38.80;;;14.40;;
71637;SDS011;59485;43.542;-5.676;2024-02-21T14:50:59;44.67;;;15.17;;
71637;SDS011;59485;43.542;-5.676;2024-02-21T14:53:25;40.73;;;15.87;;
71637;SDS011;59485;43.542;-5.676;2024-02-21T14:55:50;43.50;;;16.63;;
71637;SDS011;59485;43.542;-5.676;2024-02-21T14:58:16;50.30;;;16.30;;
71637;SDS011;59485;43.542;-5.676;2024-02-21T15:00:43;123.00;;;27.52;;
71637;SDS011;59485;43.542;-5.676;2024-02-21T15:03:09;95.00;;;25.47;;
71637;SDS011;59485;43.542;-5.676;2024-02-21T15:05:35;57.95;;;18.95;;
71637;SDS011;59485;43.542;-5.676;2024-02-21T15:08:01;54.08;;;16.85;;
71637;SDS011;59485;43.542;-5.676;2024-02-21T15:10:27;59.40;;;18.43;;
71637;SDS011;59485;43.542;-5.676;2024-02-21T15:12:52;47.73;;;17.73;;
71637;SDS011;59485;43.542;-5.676;2024-02-21T15:15:17;43.25;;;27.08;;
71637;SDS011;59485;43.542;-5.676;2024-02-21T15:17:43;38.03;;;13.90;;
71637;SDS011;59485;43.542;-5.676;2024-02-21T15:20:10;48.42;;;20.73;;
71637;SDS011;59485;43.542;-5.676;2024-02-21T15:22:36;57.03;;;22.10;;
71637;SDS011;59485;43.542;-5.676;2024-02-21T15:25:01;42.10;;;19.13;;